Time;durP1;ratioP1;P1;durP2;ratioP2;P2;SDS_P1;SDS_P2;PMS_P1;PMS_P2;Temp;Humidity;BMP_temperature;BMP_pressure;BME280_temperature;BME280_humidity;BME280_pressure;Samples;Min_cycle;Max_cycle;Signal;HPM_P1;HPM_P2
2023/05/22 00:01:06;;;;;;;;;14.00;12.00;;;;;16.47;78.53;101532.88;5038015;28;45257;-79
2023/05/22 00:03:32;;;;;;;;;13.67;12.00;;;;;16.43;79.72;101517.13;5028748;28;45581;-79
2023/05/22 00:05:57;;;;;;;;;16.00;12.00;;;;;16.48;79.00;101525.75;5037457;28;45494;-80
2023/05/22 00:08:26;;;;;;;;;16.33;12.00;;;;;16.41;79.21;101505.69;5030519;28;45367;-79
2023/05/22 00:10:53;;;;;;;;;15.00;12.00;;;;;16.40;78.45;101503.97;5037907;28;45365;-79
2023/05/22 00:13:19;;;;;;;;;12.33;11.00;;;;;16.47;79.95;101513.34;5046357;28;45390;-79
2023/05/22 00:15:44;;;;;;;;;16.33;14.33;;;;;16.47;78.69;101524.00;5039145;28;45490;-79
2023/05/22 00:18:12;;;;;;;;;15.33;13.00;;;;;16.40;79.00;101507.50;5039845;28;45283;-78
2023/05/22 00:20:39;;;;;;;;;17.33;12.67;;;;;16.49;80.02;101527.47;5038805;28;45581;-79
2023/05/22 00:23:08;;;;;;;;;13.33;12.00;;;;;16.49;79.30;101517.63;5034874;28;45689;-79
2023/05/22 00:25:34;;;;;;;;;12.00;12.00;;;;;16.43;80.37;101503.78;5036690;28;45395;-79
2023/05/22 00:28:00;;;;;;;;;12.00;11.00;;;;;16.40;80.05;101503.97;5035123;28;45421;-79
2023/05/22 00:30:25;;;;;;;;;13.00;12.67;;;;;16.38;79.95;101500.53;5050253;28;45361;-79
2023/05/22 00:32:50;;;;;;;;;12.33;9.33;;;;;16.30;80.22;101487.66;5022682;28;51111;-79
2023/05/22 00:35:16;;;;;;;;;8.33;7.33;;;;;16.39;80.47;101499.59;5024213;28;46562;-79
2023/05/22 00:37:41;;;;;;;;;14.00;12.67;;;;;16.40;79.80;101512.84;5037530;28;47588;-78
2023/05/22 00:40:07;;;;;;;;;15.67;12.00;;;;;16.39;79.81;101515.63;5037511;28;45335;-78
2023/05/22 00:42:32;;;;;;;;;15.33;11.33;;;;;16.36;78.66;101521.16;5030595;28;45728;-79
2023/05/22 00:44:58;;;;;;;;;13.00;12.00;;;;;16.27;79.33;101502.97;5037069;28;52704;-78
2023/05/22 00:47:23;;;;;;;;;12.00;11.33;;;;;16.35;80.42;101522.09;5038208;28;45411;-78
2023/05/22 00:49:48;;;;;;;;;10.00;10.00;;;;;16.23;80.65;101501.47;5035503;28;45534;-78
2023/05/22 00:52:16;;;;;;;;;16.67;12.67;;;;;16.26;79.92;101512.84;5039130;28;45771;-79
2023/05/22 00:54:42;;;;;;;;;11.33;10.33;;;;;16.25;81.56;101504.91;5035980;28;46805;-78
2023/05/22 00:57:08;;;;;;;;;11.33;8.00;;;;;16.33;81.31;101521.34;5036079;28;45382;-78
2023/05/22 00:59:34;;;;;;;;;12.67;11.00;;;;;16.29;79.76;101514.44;5028990;28;45272;-78
2023/05/22 01:02:00;;;;;;;;;14.33;11.00;;;;;16.31;79.77;101513.41;5027401;28;45445;-78
2023/05/22 01:04:26;;;;;;;;;11.67;10.00;;;;;16.28;79.89;101513.59;5026229;28;46011;-78
2023/05/22 01:06:52;;;;;;;;;10.67;9.00;;;;;16.23;80.30;101506.81;5032876;28;45367;-79
2023/05/22 01:09:18;;;;;;;;;9.67;9.67;;;;;16.04;80.75;101481.19;5034863;28;45384;-78
2023/05/22 01:12:25;;;;;;;;;14.00;11.00;;;;;16.11;79.70;101495.03;5024663;28;45319;-79
2023/05/22 01:15:06;;;;;;;;;11.67;10.33;;;;;16.11;78.71;101511.03;5030080;28;45559;-78
2023/05/22 01:17:51;;;;;;;;;12.67;9.00;;;;;15.97;80.27;101498.50;5027806;28;45392;-79
2023/05/22 01:20:29;;;;;;;;;13.67;11.33;;;;;16.06;80.22;101502.47;5032201;28;45453;-79
2023/05/22 01:23:24;;;;;;;;;13.33;12.00;;;;;16.00;80.41;101490.31;5028382;28;45658;-79
2023/05/22 01:26:04;;;;;;;;;12.67;10.00;;;;;16.04;80.74;101507.00;5008898;28;46127;-79
2023/05/22 01:29:03;;;;;;;;;13.67;9.00;;;;;16.00;79.63;101503.66;5033521;28;45337;-79
2023/05/22 01:31:30;;;;;;;;;11.67;8.67;;;;;15.95;79.41;101503.09;5029252;28;45409;-78
2023/05/22 01:33:59;;;;;;;;;15.00;11.33;;;;;15.85;80.44;101488.56;5050138;28;45424;-78
2023/05/22 01:36:29;;;;;;;;;14.00;14.00;;;;;15.88;79.39;101503.53;5036915;28;45391;-78
2023/05/22 01:38:55;;;;;;;;;15.00;10.67;;;;;15.82;80.07;101493.22;5036948;28;45505;-79
2023/05/22 01:41:21;;;;;;;;;12.33;11.33;;;;;15.65;79.83;101478.19;5028776;28;45349;-79
2023/05/22 01:43:47;;;;;;;;;12.33;11.00;;;;;15.70;79.32;101485.94;5034997;28;45503;-79
2023/05/22 01:46:12;;;;;;;;;16.00;13.33;;;;;15.71;80.63;101493.81;5036074;28;47108;-78
2023/05/22 01:48:38;;;;;;;;;17.00;14.67;;;;;15.67;80.19;101502.97;5032181;28;49337;-78
2023/05/22 01:51:10;;;;;;;;;12.00;11.00;;;;;15.57;81.35;101483.94;5021802;28;45362;-78
2023/05/22 01:53:47;;;;;;;;;12.67;12.67;;;;;15.40;80.82;101470.69;5037145;28;45497;-78
2023/05/22 01:56:18;;;;;;;;;15.00;13.00;;;;;15.57;80.70;101499.94;5055077;28;45451;-79
2023/05/22 01:59:05;;;;;;;;;13.67;11.67;;;;;15.54;81.22;101508.13;5038092;28;45454;-78
2023/05/22 02:01:33;;;;;;;;;12.00;11.00;;;;;15.38;81.99;101485.06;5039788;28;45388;-78
2023/05/22 02:04:00;;;;;;;;;15.33;15.33;;;;;15.45;83.30;101499.75;5034358;28;45689;-78
2023/05/22 02:06:28;;;;;;;;;11.67;10.00;;;;;15.34;81.75;101486.19;5040630;28;47560;-78
2023/05/22 02:08:54;;;;;;;;;14.00;12.33;;;;;15.33;83.50;101487.09;5027089;28;45466;-78
2023/05/22 02:11:23;;;;;;;;;11.33;11.33;;;;;15.23;83.92;101485.91;5040757;28;45370;-78
2023/05/22 02:13:49;;;;;;;;;11.33;11.33;;;;;15.27;84.19;101487.47;5037591;28;45371;-78
2023/05/22 02:16:14;;;;;;;;;14.67;12.33;;;;;15.14;84.07;101465.97;5036348;28;46458;-78
2023/05/22 02:18:40;;;;;;;;;14.67;14.67;;;;;15.24;84.08;101506.28;5041861;28;45255;-78
2023/05/22 02:21:07;;;;;;;;;16.00;11.33;;;;;15.29;83.88;101501.53;5039852;28;45493;-78
2023/05/22 02:23:33;;;;;;;;;12.67;12.67;;;;;15.22;82.48;101500.16;5041286;28;45430;-79
2023/05/22 02:25:58;;;;;;;;;10.67;10.67;;;;;15.23;84.77;101501.88;5040833;28;46360;-78
2023/05/22 02:28:24;;;;;;;;;12.00;11.33;;;;;15.25;82.76;101503.53;5035817;28;45630;-79
2023/05/22 02:30:49;;;;;;;;;17.00;13.67;;;;;15.06;82.75;101473.50;5039283;28;45577;-79
2023/05/22 02:33:16;;;;;;;;;16.67;13.33;;;;;15.12;83.05;101492.69;5038064;28;45444;-78
2023/05/22 02:35:42;;;;;;;;;15.00;12.33;;;;;15.06;83.59;101498.34;5037711;28;45357;-79
2023/05/22 02:38:08;;;;;;;;;13.33;11.33;;;;;15.05;83.68;101495.78;5023439;28;45344;-78
2023/05/22 02:40:33;;;;;;;;;10.00;10.00;;;;;14.95;84.16;101475.91;5040146;28;45263;-78
2023/05/22 02:42:58;;;;;;;;;7.67;7.67;;;;;14.91;83.38;101480.56;5041987;28;45371;-78
2023/05/22 02:45:24;;;;;;;;;11.33;8.00;;;;;14.88;84.64;101478.06;5043024;28;45646;-79
2023/05/22 02:47:49;;;;;;;;;16.00;14.00;;;;;14.82;86.25;101483.69;5034575;28;45233;-78
2023/05/22 02:50:15;;;;;;;;;16.33;13.67;;;;;14.91;84.88;101490.34;5039191;28;45714;-78
2023/05/22 02:52:44;;;;;;;;;16.67;14.67;;;;;14.80;85.18;101484.72;5038376;28;45305;-78
2023/05/22 02:55:10;;;;;;;;;17.33;17.33;;;;;14.79;84.90;101475.88;5044153;28;46593;-78
2023/05/22 02:57:35;;;;;;;;;13.33;12.33;;;;;14.90;85.42;101496.59;5055252;28;45386;-78
2023/05/22 03:00:02;;;;;;;;;17.00;11.67;;;;;14.85;85.63;101496.00;5037846;28;45294;-78
2023/05/22 03:02:28;;;;;;;;;12.67;11.00;;;;;14.82;85.56;101502.31;5035838;28;45539;-78
2023/05/22 03:04:54;;;;;;;;;14.33;12.33;;;;;14.77;85.04;101488.41;5031357;28;47503;-78
2023/05/22 03:07:20;;;;;;;;;14.33;13.33;;;;;14.80;85.53;101496.22;5032644;28;45314;-78
2023/05/22 03:09:46;;;;;;;;;18.67;16.00;;;;;14.71;85.10;101495.88;5031050;28;46660;-78
2023/05/22 03:12:11;;;;;;;;;18.00;9.00;;;;;14.76;86.21;101494.66;5039237;28;45381;-77
2023/05/22 03:14:36;;;;;;;;;13.00;10.67;;;;;14.74;84.79;101487.72;5039885;28;45356;-78
2023/05/22 03:17:05;;;;;;;;;13.67;11.33;;;;;14.77;84.87;101490.22;5039414;28;45302;-78
2023/05/22 03:19:30;;;;;;;;;10.33;10.33;;;;;14.72;86.19;101486.94;5030279;28;45451;-78
2023/05/22 03:21:56;;;;;;;;;13.67;12.00;;;;;14.72;84.75;101500.25;5035323;28;45426;-78
2023/05/22 03:24:21;;;;;;;;;16.33;13.67;;;;;14.74;85.31;101509.88;5031692;28;47887;-78
2023/05/22 03:26:47;;;;;;;;;14.67;13.00;;;;;14.51;86.18;101472.97;5032499;28;46240;-78
2023/05/22 03:29:14;;;;;;;;;14.67;11.67;;;;;14.67;85.95;101500.50;5040838;28;45519;-78
2023/05/22 03:31:40;;;;;;;;;13.33;11.67;;;;;14.55;84.78;101483.38;5043750;28;45446;-78
2023/05/22 03:34:06;;;;;;;;;17.67;15.33;;;;;14.50;85.19;101484.53;5033879;28;47793;-77
2023/05/22 03:36:34;;;;;;;;;17.00;14.67;;;;;14.47;86.22;101482.91;5035873;28;45441;-78
2023/05/22 03:39:03;;;;;;;;;13.67;11.00;;;;;14.53;86.09;101492.38;5032665;28;45423;-79
2023/05/22 03:41:29;;;;;;;;;14.33;12.67;;;;;14.46;86.47;101488.31;5039808;28;45296;-77
2023/05/22 03:43:54;;;;;;;;;13.67;13.00;;;;;14.31;86.97;101465.13;5040830;28;46503;-77
2023/05/22 03:46:22;;;;;;;;;14.67;13.00;;;;;14.34;87.77;101489.81;5038731;28;45455;-78
2023/05/22 03:48:47;;;;;;;;;15.00;12.33;;;;;14.39;87.58;101487.78;5040378;28;45369;-78
2023/05/22 03:51:12;;;;;;;;;16.00;14.00;;;;;14.39;88.17;101489.59;5040313;28;45381;-78
2023/05/22 03:53:38;;;;;;;;;14.33;11.67;;;;;14.01;88.92;101436.50;5040245;28;45465;-78
2023/05/22 03:56:03;;;;;;;;;10.00;10.00;;;;;14.32;88.24;101494.31;5037703;28;45385;-78
2023/05/22 03:58:29;;;;;;;;;13.67;13.00;;;;;14.30;88.85;101477.56;5028887;28;45413;-78
2023/05/22 04:00:57;;;;;;;;;17.67;13.67;;;;;14.31;89.63;101491.72;5032890;28;45536;-78
2023/05/22 04:03:23;;;;;;;;;13.00;13.00;;;;;14.33;89.03;101497.84;5025603;28;46139;-78
2023/05/22 04:05:48;;;;;;;;;18.67;16.33;;;;;14.17;89.27;101480.97;5035025;28;45260;-78
2023/05/22 04:08:14;;;;;;;;;9.00;9.00;;;;;14.24;90.46;101491.19;5034695;28;45521;-78
2023/05/22 04:10:39;;;;;;;;;17.00;14.00;;;;;14.14;89.09;101479.28;5038542;28;45912;-78
2023/05/22 04:13:04;;;;;;;;;11.33;9.67;;;;;14.12;89.34;101478.53;5031831;28;46666;-78
2023/05/22 04:15:33;;;;;;;;;16.67;16.33;;;;;14.22;90.46;101505.50;5039867;28;45297;-78
2023/05/22 04:17:59;;;;;;;;;17.33;13.00;;;;;14.10;91.57;101481.25;5054934;28;45381;-78
2023/05/22 04:20:25;;;;;;;;;15.00;15.00;;;;;14.30;90.90;101522.78;5038118;28;45429;-78
2023/05/22 04:22:50;;;;;;;;;14.33;13.67;;;;;14.25;90.93;101506.22;5036975;28;46848;-78
2023/05/22 04:25:16;;;;;;;;;16.00;11.00;;;;;14.07;92.12;101478.75;5037803;28;45335;-78
2023/05/22 04:27:41;;;;;;;;;13.33;13.33;;;;;14.26;91.65;101507.09;5034908;28;45481;-78
2023/05/22 04:30:07;;;;;;;;;13.33;13.33;;;;;14.27;92.56;101501.66;5036168;28;45495;-78
2023/05/22 04:32:35;;;;;;;;;13.33;13.33;;;;;14.23;92.25;101491.28;5023135;28;46893;-80
2023/05/22 04:35:00;;;;;;;;;14.67;14.67;;;;;14.16;91.62;101479.22;5047018;28;45775;-80
2023/05/22 04:37:27;;;;;;;;;12.67;12.67;;;;;14.30;92.25;101506.84;5034284;28;45282;-80
2023/05/22 04:39:56;;;;;;;;;11.67;11.67;;;;;14.30;91.25;101504.16;5034746;28;45763;-81
2023/05/22 04:42:29;;;;;;;;;15.00;14.00;;;;;14.32;90.68;101507.63;5033318;28;45683;-80
2023/05/22 04:44:56;;;;;;;;;14.67;14.67;;;;;14.39;92.40;101510.88;5031329;28;45492;-78
2023/05/22 04:47:22;;;;;;;;;16.67;14.67;;;;;14.46;92.86;101512.28;5036964;28;45569;-80
2023/05/22 04:49:50;;;;;;;;;15.33;11.67;;;;;14.45;93.79;101505.22;5024446;28;45419;-80
2023/05/22 04:52:23;;;;;;;;;14.33;13.00;;;;;14.56;90.90;101530.34;5037156;28;45482;-78
2023/05/22 04:54:51;;;;;;;;;17.00;15.00;;;;;14.32;90.89;101496.13;5039875;28;45315;-78
2023/05/22 04:57:20;;;;;;;;;16.00;14.50;;;;;14.26;91.05;101480.47;5033802;28;45283;-76
2023/05/22 04:59:56;;;;;;;;;13.00;12.00;;;;;14.50;92.74;101509.34;5035825;28;45519;-76
2023/05/22 05:02:21;;;;;;;;;16.00;14.67;;;;;14.60;90.73;101529.25;5032858;28;46876;-76
2023/05/22 05:04:56;;;;;;;;;15.00;14.67;;;;;14.12;90.46;101445.72;5032430;28;45344;-76
2023/05/22 05:07:42;;;;;;;;;14.33;14.00;;;;;14.23;89.68;101472.66;5034627;28;45482;-75
2023/05/22 05:10:11;;;;;;;;;15.67;14.33;;;;;14.47;89.88;101503.34;5037185;28;45290;-75
2023/05/22 05:12:45;;;;;;;;;19.67;12.67;;;;;14.22;89.62;101460.28;5039318;28;46177;-75
2023/05/22 05:15:17;;;;;;;;;14.33;11.00;;;;;14.56;89.30;101509.03;5039880;28;45659;-75
2023/05/22 05:17:54;;;;;;;;;14.67;14.00;;;;;14.74;89.14;101527.66;5038381;28;45450;-75
2023/05/22 05:20:29;;;;;;;;;19.00;14.00;;;;;14.70;89.66;101513.63;5055402;28;45503;-78
2023/05/22 05:22:55;;;;;;;;;16.67;13.67;;;;;14.71;89.57;101507.38;5053727;28;45806;-78
2023/05/22 05:25:41;;;;;;;;;13.33;13.33;;;;;14.24;89.66;101431.78;5032100;28;45527;-78
2023/05/22 05:28:18;;;;;;;;;17.33;16.00;;;;;14.51;87.75;101459.66;5032978;28;45463;-78
2023/05/22 05:30:46;;;;;;;;;16.00;12.33;;;;;14.89;89.37;101529.50;5031433;28;45410;-78
2023/05/22 05:33:18;;;;;;;;;16.00;13.00;;;;;14.92;88.76;101524.03;5031578;28;45436;-78
2023/05/22 05:35:44;;;;;;;;;18.00;15.67;;;;;14.43;89.01;101456.56;5036820;28;45509;-78
2023/05/22 05:38:17;;;;;;;;;15.67;13.33;;;;;14.47;88.71;101442.97;5035301;28;45517;-78
2023/05/22 05:41:10;;;;;;;;;12.67;12.00;;;;;14.78;87.17;101483.94;5033637;28;45542;-79
2023/05/22 05:43:36;;;;;;;;;14.67;11.33;;;;;14.56;87.84;101429.16;5017933;28;45687;-78
2023/05/22 05:46:02;;;;;;;;;15.33;14.33;;;;;14.74;88.81;101453.09;5052022;28;45781;-80
2023/05/22 05:48:41;;;;;;;;;18.33;14.00;;;;;14.77;86.61;101413.00;5034901;28;45556;-78
2023/05/22 05:51:28;;;;;;;;;8.33;8.33;;;;;14.92;84.60;101454.78;5036273;28;45590;-80
2023/05/22 05:53:53;;;;;;;;;14.67;12.00;;;;;15.07;84.61;101460.13;5035833;28;46012;-76
2023/05/22 05:56:20;;;;;;;;;17.00;15.33;;;;;15.40;85.48;101518.69;5034314;28;45297;-77
2023/05/22 05:58:50;;;;;;;;;16.67;15.00;;;;;15.32;85.46;101502.22;5038201;28;45359;-77
2023/05/22 06:01:21;;;;;;;;;14.67;14.67;;;;;15.01;85.64;101464.91;5029684;28;45533;-80
2023/05/22 06:03:52;;;;;;;;;15.67;12.67;;;;;15.05;86.61;101466.47;5036145;28;47055;-80
2023/05/22 06:06:18;;;;;;;;;18.67;14.33;;;;;15.21;85.33;101487.81;5026115;28;46079;-76
2023/05/22 06:08:52;;;;;;;;;16.67;12.00;;;;;15.37;86.67;101542.84;5034600;28;45181;-80
2023/05/22 06:11:17;;;;;;;;;13.00;13.00;;;;;14.94;85.10;101459.06;5035412;28;45508;-78
2023/05/22 06:13:53;;;;;;;;;13.33;13.33;;;;;14.95;85.18;101475.91;5033129;28;45803;-76
2023/05/22 06:16:19;;;;;;;;;13.67;11.67;;;;;15.10;85.00;101505.25;5031242;28;45440;-76
2023/05/22 06:19:03;;;;;;;;;;;;;;;;;;;;;
2023/05/22 06:24:37;;;;;;;;;14.67;12.67;;;;;14.74;85.33;101445.09;5028556;28;46039;-82
2023/05/22 06:27:04;;;;;;;;;11.00;10.33;;;;;14.80;85.71;101455.41;5034332;28;45420;-82
2023/05/22 06:29:43;;;;;;;;;15.67;13.00;;;;;15.01;85.37;101492.44;5035163;28;45514;-82
2023/05/22 06:32:14;;;;;;;;;11.67;11.67;;;;;15.44;85.66;101562.88;5044041;28;45246;-82
2023/05/22 06:35:18;;;;;;;;;9.33;8.00;;;;;15.04;84.12;101470.09;5043197;28;46500;-83
2023/05/22 06:38:03;;;;;;;;;18.67;14.00;;;;;15.24;84.94;101520.47;5030085;28;45359;-84
2023/05/22 06:40:29;;;;;;;;;18.00;14.67;;;;;15.29;83.99;101502.41;5027590;28;45583;-85
2023/05/22 06:43:08;;;;;;;;;13.33;12.33;;;;;15.37;83.40;101494.00;5032703;28;45405;-82
2023/05/22 06:45:40;;;;;;;;;14.00;12.67;;;;;15.83;82.94;101557.16;5037050;28;46502;-76
2023/05/22 06:48:13;;;;;;;;;13.67;13.00;;;;;15.89;82.79;101553.28;5035259;28;45463;-77
2023/05/22 06:50:49;;;;;;;;;16.00;14.33;;;;;15.83;81.82;101557.16;5029677;28;45590;-77
2023/05/22 06:53:16;;;;;;;;;13.67;13.33;;;;;15.46;83.06;101466.81;5053754;28;45421;-77
2023/05/22 06:55:50;;;;;;;;;14.33;12.67;;;;;15.61;81.49;101471.28;5033385;28;46367;-78
2023/05/22 06:58:35;;;;;;;;;;;;;;;;;;;;;
2023/05/22 07:01:22;;;;;;;;;12.67;11.00;;;;;16.19;80.49;101548.84;5036991;28;68494;-77
2023/05/22 07:03:51;;;;;;;;;13.00;11.00;;;;;15.99;80.03;101530.44;5037274;28;45338;-76
2023/05/22 07:06:23;;;;;;;;;15.00;12.00;;;;;16.07;79.68;101537.06;5040528;28;45998;-77
2023/05/22 07:09:01;;;;;;;;;15.33;11.00;;;;;15.72;80.11;101457.34;5033806;28;45699;-76
2023/05/22 07:11:57;;;;;;;;;13.67;12.00;;;;;16.31;80.61;101557.91;5029384;28;45369;-76
2023/05/22 07:14:38;;;;;;;;;15.00;13.00;;;;;16.10;80.89;101493.31;5026408;28;45328;-76
2023/05/22 07:17:27;;;;;;;;;;;;;;;;;;;;;
2023/05/22 07:20:21;;;;;;;;;12.00;11.33;;;;;16.73;80.72;101549.19;5035106;28;72145;-76
2023/05/22 07:23:03;;;;;;;;;12.33;12.33;;;;;16.93;78.93;101559.50;5038735;28;45293;-78
2023/05/22 07:28:39;;;;;;;;;13.33;10.67;;;;;17.13;77.64;101561.81;5030523;28;45359;-79
2023/05/22 07:31:14;;;;;;;;;15.33;11.67;;;;;16.73;77.68;101485.94;5034155;28;45484;-81
2023/05/22 07:33:51;;;;;;;;;13.67;12.00;;;;;16.81;77.50;101488.13;5038560;28;45475;-80
2023/05/22 07:36:22;;;;;;;;;13.33;11.67;;;;;16.91;76.07;101518.69;5021318;28;45868;-81
2023/05/22 07:38:52;;;;;;;;;14.00;12.33;;;;;17.23;76.43;101573.66;5035657;28;47144;-81
2023/05/22 07:41:17;;;;;;;;;14.00;11.00;;;;;17.05;76.74;101489.25;5035414;28;45359;-81
2023/05/22 07:43:53;;;;;;;;;12.67;10.33;;;;;17.72;74.81;101579.47;5032580;28;45384;-81
2023/05/22 07:46:22;;;;;;;;;11.33;11.33;;;;;17.32;75.29;101492.84;5037219;28;45299;-82
2023/05/22 07:49:18;;;;;;;;;;;;;;;;;;;;;
2023/05/22 07:51:48;;;;;;;;;17.00;16.33;;;;;17.43;74.97;101487.69;5036000;28;72469;-81
2023/05/22 07:54:23;;;;;;;;;15.33;13.67;;;;;17.58;73.14;101492.06;5037959;28;45600;-82
2023/05/22 07:56:50;;;;;;;;;14.00;14.00;;;;;18.33;73.95;101600.38;5042821;28;45501;-80
2023/05/22 07:59:23;;;;;;;;;14.67;10.67;;;;;18.03;72.81;101520.28;5053365;28;46855;-80
2023/05/22 08:01:59;;;;;;;;;14.67;13.33;;;;;18.00;71.49;101493.72;5052327;28;45348;-80
2023/05/22 08:04:35;;;;;;;;;14.67;11.67;;;;;18.33;72.86;101540.59;5027946;28;45355;-80
2023/05/22 08:07:27;;;;;;;;;13.00;7.67;;;;;18.46;72.91;101536.13;5038338;28;45509;-80
2023/05/22 08:10:22;;;;;;;;;12.00;12.00;;;;;18.92;72.07;101579.41;5037260;28;47009;-81
2023/05/22 08:13:06;;;;;;;;;15.33;11.33;;;;;18.68;71.29;101539.94;5042182;28;45424;-81
2023/05/22 08:15:36;;;;;;;;;11.67;10.67;;;;;18.96;70.92;101580.91;5035035;28;45492;-81
2023/05/22 08:18:12;;;;;;;;;15.33;12.33;;;;;19.09;69.44;101613.94;5029737;28;45634;-83
2023/05/22 08:20:41;;;;;;;;;14.00;12.00;;;;;18.39;69.00;101495.50;5034740;28;47056;-80
2023/05/22 08:23:19;;;;;;;;;15.00;12.00;;;;;18.68;71.70;101507.75;5038156;28;45566;-81
2023/05/22 08:25:47;;;;;;;;;15.33;13.33;;;;;18.86;68.81;101539.63;5025643;28;45311;-83
2023/05/22 08:28:22;;;;;;;;;14.33;12.33;;;;;19.02;67.73;101575.97;5042422;28;45640;-80
2023/05/22 08:31:01;;;;;;;;;12.00;12.00;;;;;18.70;71.89;101513.03;5024044;28;46311;-80
2023/05/22 08:33:30;;;;;;;;;16.67;15.00;;;;;19.12;69.53;101568.13;5035919;28;45600;-81
2023/05/22 08:36:02;;;;;;;;;18.33;14.67;;;;;18.84;68.06;101530.84;5032585;28;45327;-82
2023/05/22 08:38:33;;;;;;;;;16.00;14.33;;;;;19.32;68.31;101606.97;5040174;28;45479;-82
2023/05/22 08:41:05;;;;;;;;;18.67;16.33;;;;;19.24;67.88;101551.16;5040171;28;45775;-82
2023/05/22 08:43:31;;;;;;;;;11.00;11.00;;;;;19.40;67.68;101538.44;5029401;28;45484;-83
2023/05/22 08:46:04;;;;;;;;;13.33;12.67;;;;;19.62;69.25;101537.72;5040332;28;45388;-81
2023/05/22 08:48:37;;;;;;;;;14.67;14.33;;;;;19.58;68.43;101534.41;5039754;28;45610;-83
2023/05/22 08:51:33;;;;;;;;;14.67;13.00;;;;;19.75;66.00;101536.72;5040202;28;46497;-81
2023/05/22 08:54:03;;;;;;;;;16.33;14.00;;;;;19.86;65.19;101535.88;5038677;28;45431;-83
2023/05/22 08:56:40;;;;;;;;;19.33;15.00;;;;;19.76;65.79;101514.25;5038314;28;45629;-81
2023/05/22 08:59:10;;;;;;;;;14.00;12.67;;;;;20.28;66.61;101615.16;5054858;28;45640;-81
2023/05/22 09:01:43;;;;;;;;;16.67;14.33;;;;;19.73;66.35;101506.41;5036939;28;45735;-82
2023/05/22 09:04:15;;;;;;;;;14.00;13.67;;;;;20.08;65.77;101583.50;5036745;28;45383;-82
2023/05/22 09:06:41;;;;;;;;;13.33;12.33;;;;;19.90;66.50;101529.31;5052123;28;45510;-82
2023/05/22 09:09:13;;;;;;;;;16.33;13.33;;;;;20.54;66.63;101610.50;5037714;28;45501;-83
2023/05/22 09:11:43;;;;;;;;;14.00;13.33;;;;;20.02;65.01;101522.19;5037323;28;47339;-81
2023/05/22 09:14:15;;;;;;;;;14.67;12.67;;;;;20.50;66.17;101612.56;5024644;28;47034;-81
2023/05/22 09:16:51;;;;;;;;;17.00;13.33;;;;;20.15;68.24;101521.16;5034806;28;45549;-82
2023/05/22 09:19:17;;;;;;;;;14.33;12.67;;;;;21.04;65.70;101612.81;5036772;28;45900;-81
2023/05/22 09:21:47;;;;;;;;;15.00;13.00;;;;;21.08;64.91;101565.03;5038353;28;45675;-82
2023/05/22 09:24:23;;;;;;;;;12.00;9.67;;;;;21.56;63.69;101614.97;5037477;28;45336;-81
2023/05/22 09:26:51;;;;;;;;;16.00;14.33;;;;;21.48;62.47;101568.97;5032995;28;45582;-84
2023/05/22 09:29:23;;;;;;;;;19.33;16.00;;;;;21.38;62.96;101553.69;5029336;28;45538;-80
2023/05/22 09:32:02;;;;;;;;;15.00;13.33;;;;;21.21;61.70;101506.59;5034245;28;45552;-81
2023/05/22 09:34:49;;;;;;;;;17.33;13.33;;;;;21.84;62.57;101616.31;5037300;28;45551;-83
2023/05/22 09:37:30;;;;;;;;;10.33;10.33;;;;;21.81;61.36;101608.47;5037664;28;45366;-84
2023/05/22 09:39:59;;;;;;;;;13.00;13.00;;;;;21.50;62.59;101585.03;5038461;28;45419;-82
2023/05/22 09:42:25;;;;;;;;;15.33;13.33;;;;;21.51;62.74;101600.16;5036845;28;48150;-84
2023/05/22 09:44:56;;;;;;;;;21.67;13.33;;;;;21.41;61.45;101634.19;5033137;28;45387;-82
2023/05/22 09:47:30;;;;;;;;;14.00;13.00;;;;;20.82;64.47;101539.31;5036563;28;45408;-81
2023/05/22 09:50:09;;;;;;;;;14.00;11.67;;;;;20.92;64.94;101543.00;5036355;28;45749;-82
2023/05/22 09:52:54;;;;;;;;;14.67;12.00;;;;;21.18;66.40;101555.28;5036407;28;47431;-82
2023/05/22 09:55:26;;;;;;;;;16.33;15.67;;;;;21.35;62.64;101567.38;5037014;28;45318;-83
2023/05/22 09:57:56;;;;;;;;;17.00;15.00;;;;;21.11;63.94;101524.44;5036714;28;45471;-82
2023/05/22 10:00:30;;;;;;;;;16.33;12.00;;;;;21.77;66.26;101588.16;5036945;28;45298;-81
2023/05/22 10:03:04;;;;;;;;;14.00;12.33;;;;;22.10;63.38;101623.13;5040151;28;45461;-81
2023/05/22 10:05:35;;;;;;;;;13.00;13.00;;;;;21.86;61.90;101536.22;5053178;28;45366;-82
2023/05/22 10:08:09;;;;;;;;;11.33;11.33;;;;;22.30;62.67;101557.66;5036534;28;45412;-81
2023/05/22 10:10:41;;;;;;;;;18.00;17.00;;;;;22.52;60.51;101569.31;5038143;28;45404;-81
2023/05/22 10:13:14;;;;;;;;;19.33;15.33;;;;;22.40;61.91;101562.25;5036387;28;46436;-82
2023/05/22 10:15:51;;;;;;;;;;;;;;;;;;;;;
2023/05/22 10:18:17;;;;;;;;;25.33;19.00;;;;;22.47;62.63;101541.91;5038856;28;68802;-81
2023/05/22 10:20:45;;;;;;;;;21.00;16.00;;;;;22.88;59.68;101576.97;5042966;28;45367;-82
2023/05/22 10:23:11;;;;;;;;;15.00;15.00;;;;;23.07;59.77;101578.94;5048883;28;48283;-81
2023/05/22 10:25:37;;;;;;;;;20.00;20.00;;;;;22.87;58.44;101540.22;5043176;28;45458;-81
2023/05/22 10:28:03;;;;;;;;;19.67;19.00;;;;;22.97;58.23;101543.78;5043133;28;45469;-83
2023/05/22 10:30:42;;;;;;;;;16.67;15.67;;;;;23.13;58.61;101559.53;5042336;28;45368;-83
2023/05/22 10:33:20;;;;;;;;;18.00;18.00;;;;;22.76;58.45;101538.44;5041734;28;45405;-83
2023/05/22 10:36:00;;;;;;;;;22.33;19.67;;;;;22.51;58.83;101559.53;5030892;28;45395;-82
2023/05/22 10:38:45;;;;;;;;;20.00;16.33;;;;;22.82;61.57;101561.31;5038255;28;45277;-82
2023/05/22 10:41:12;;;;;;;;;20.33;16.00;;;;;22.97;60.23;101559.16;5041540;28;45359;-82
2023/05/22 10:43:41;;;;;;;;;23.67;20.33;;;;;22.69;59.37;101539.09;5040017;28;45868;-82
2023/05/22 10:46:08;;;;;;;;;18.67;17.67;;;;;22.66;59.66;101539.38;5039873;28;45521;-82
2023/05/22 10:48:56;;;;;;;;;19.00;15.33;;;;;22.93;60.01;101539.69;5053634;28;45340;-82
2023/05/22 10:51:22;;;;;;;;;20.33;17.33;;;;;23.24;58.84;101545.91;5034083;28;45722;-81
2023/05/22 10:54:04;;;;;;;;;19.67;18.33;;;;;23.36;58.59;101523.25;5037354;28;45389;-85
2023/05/22 10:56:39;;;;;;;;;23.00;21.00;;;;;22.91;57.99;101476.88;5036759;28;45380;-84
2023/05/22 10:59:08;;;;;;;;;23.33;20.67;;;;;23.07;58.49;101519.59;5041507;28;45296;-80
2023/05/22 11:01:36;;;;;;;;;17.33;17.33;;;;;23.26;57.79;101539.41;5050966;28;45502;-81
2023/05/22 11:04:07;;;;;;;;;21.33;19.33;;;;;23.55;58.16;101557.59;5031739;28;47994;-81
2023/05/22 11:06:34;;;;;;;;;24.67;23.00;;;;;23.60;57.79;101550.78;5036080;28;45324;-81
2023/05/22 11:09:31;;;;;;;;;22.00;18.00;;;;;23.85;61.23;101549.41;5033159;28;45415;-80
2023/05/22 11:12:15;;;;;;;;;21.33;20.67;;;;;24.07;57.95;101551.88;5031718;28;45618;-80
2023/05/22 11:14:41;;;;;;;;;18.00;14.33;;;;;23.54;56.01;101499.16;5026525;28;46106;-82
2023/05/22 11:17:07;;;;;;;;;22.33;18.00;;;;;23.97;58.74;101523.09;5025807;28;45356;-82
2023/05/22 11:19:33;;;;;;;;;21.00;19.00;;;;;24.05;58.21;101507.88;5041065;28;45244;-81
2023/05/22 11:22:07;;;;;;;;;16.67;15.00;;;;;24.18;55.96;101484.16;5038969;28;45467;-81
2023/05/22 11:24:40;;;;;;;;;22.33;19.33;;;;;24.64;55.83;101547.47;5038283;28;46533;-82
2023/05/22 11:27:06;;;;;;;;;21.00;17.33;;;;;24.04;54.96;101514.31;5025029;28;45533;-83
2023/05/22 11:29:46;;;;;;;;;16.33;16.00;;;;;23.88;55.89;101561.78;5038735;28;45419;-83
2023/05/22 11:32:32;;;;;;;;;20.33;18.33;;;;;23.42;56.05;101475.97;5039089;28;45302;-82
2023/05/22 11:35:16;;;;;;;;;22.00;19.67;;;;;24.01;55.93;101528.09;5037070;28;46305;-84
2023/05/22 11:37:43;;;;;;;;;18.33;18.33;;;;;23.74;57.08;101450.44;5022861;28;45463;-84
2023/05/22 11:40:19;;;;;;;;;18.33;16.67;;;;;24.29;56.68;101548.91;5038481;28;45323;-83
2023/05/22 11:42:53;;;;;;;;;20.00;17.33;;;;;24.16;54.30;101526.72;5037957;28;45483;-84